createdAt,value
2022-08-10T00:00:51.571Z,102119.81
2022-08-10T00:05:56.505Z,102131.28
2022-08-10T00:10:58.335Z,102119.81
2022-08-10T00:16:00.030Z,102125.97
2022-08-10T00:21:01.702Z,102118.94
2022-08-10T00:26:04.027Z,102118.97
2022-08-10T00:31:05.831Z,102116.34
2022-08-10T00:36:07.723Z,102115.50
2022-08-10T00:41:09.447Z,102110.31
2022-08-10T00:46:11.143Z,102104.19
2022-08-10T00:51:12.819Z,102110.41
2022-08-10T00:57:12.769Z,102104.19
2022-08-10T01:02:08.539Z,102102.44
2022-08-10T01:07:26.621Z,102100.69
2022-08-10T01:12:50.346Z,102098.06
2022-08-10T01:18:00.892Z,102097.16
2022-08-10T01:23:21.244Z,102101.56
2022-08-10T01:28:29.165Z,102094.53
2022-08-10T01:34:02.465Z,102092.78
2022-08-10T01:39:04.324Z,102091.00
2022-08-10T01:44:11.406Z,102090.13
2022-08-10T01:49:14.178Z,102083.97
2022-08-10T01:54:19.889Z,102089.22
2022-08-10T01:59:23.748Z,102082.22
2022-08-10T02:04:26.022Z,102084.84
2022-08-10T02:09:32.782Z,102087.47
2022-08-10T02:14:40.813Z,102090.09
2022-08-10T02:19:43.177Z,102092.75
2022-08-10T02:24:44.865Z,102095.41
2022-08-10T02:29:49.046Z,102097.16
2022-08-10T02:34:51.235Z,102098.88
2022-08-10T02:39:53.427Z,102096.22
2022-08-10T02:45:23.630Z,102090.91
2022-08-10T02:50:32.862Z,102094.34
2022-08-10T02:55:42.579Z,102103.03
2022-08-10T03:00:47.224Z,102111.72
2022-08-10T03:05:50.973Z,102109.03
2022-08-10T03:10:52.687Z,102108.09
2022-08-10T03:15:54.413Z,102111.56
2022-08-10T03:20:56.166Z,102104.50
2022-08-10T03:25:57.970Z,102107.97
2022-08-10T03:31:00.259Z,102104.59
2022-08-10T03:36:40.265Z,102094.09
2022-08-10T03:41:36.665Z,102081.84
2022-08-10T03:46:40.587Z,102093.25
2022-08-10T03:51:42.289Z,102087.94
2022-08-10T03:56:44.113Z,102085.31
2022-08-10T04:02:52.879Z,102095.09
2022-08-10T04:07:07.693Z,102096.03
2022-08-10T04:12:09.428Z,102104.81
2022-08-10T04:17:14.068Z,102109.16
2022-08-10T04:22:20.396Z,102103.91
2022-08-10T04:27:22.064Z,102102.97
2022-08-10T04:32:24.044Z,102104.78
2022-08-10T04:37:25.772Z,102110.03
2022-08-10T04:42:27.438Z,102124.97
2022-08-10T04:47:57.896Z,102127.69
2022-08-10T04:52:51.231Z,102122.47
2022-08-10T04:57:53.010Z,102125.09
2022-08-10T05:02:54.699Z,102124.19
2022-08-10T05:07:57.067Z,102132.13
2022-08-10T05:12:58.864Z,102138.31
2022-08-10T05:18:06.801Z,102142.75
2022-08-10T05:23:11.701Z,102150.66
2022-08-10T05:28:13.383Z,102145.34
2022-08-10T05:33:15.072Z,102149.78
2022-08-10T05:38:17.042Z,102153.31
2022-08-10T05:43:20.037Z,102159.50
2022-08-10T05:48:41.894Z,102154.19
2022-08-10T05:54:03.615Z,102155.13
2022-08-10T05:59:05.289Z,102152.53
2022-08-10T06:04:06.981Z,102157.81
2022-08-10T06:09:08.703Z,102159.59
2022-08-10T06:14:29.210Z,102168.41
2022-08-10T06:19:31.058Z,102164.03
2022-08-10T06:24:36.269Z,102163.16
2022-08-10T06:29:38.052Z,102166.72
2022-08-10T06:34:41.789Z,102169.34
2022-08-10T06:39:44.344Z,102166.72
2022-08-10T06:45:04.632Z,102157.91
2022-08-10T06:50:10.829Z,102160.53
2022-08-10T06:55:16.775Z,102148.16
2022-08-10T07:00:20.530Z,102155.19
2022-08-10T07:05:27.092Z,102154.28
2022-08-10T07:10:46.080Z,102148.91
2022-08-10T07:15:59.186Z,102151.50
2022-08-10T07:21:02.221Z,102154.09
2022-08-10T07:26:03.996Z,102156.69
2022-08-10T07:31:35.413Z,102153.13
2022-08-10T07:36:27.452Z,102154.75
2022-08-10T07:41:31.889Z,102165.25
2022-08-10T07:46:33.721Z,102161.66
2022-08-10T08:24:04.976Z,102143.09
2022-08-10T08:26:37.963Z,102150.84
2022-08-10T08:32:01.073Z,102148.00
2022-08-10T08:37:01.645Z,102150.44
2022-08-10T08:42:35.553Z,102145.78
2022-08-10T08:48:04.720Z,102142.81
2022-08-10T08:53:22.961Z,102138.06
2022-08-10T08:58:58.464Z,102128.97
2022-08-10T09:04:34.069Z,102114.50
2022-08-10T09:09:38.334Z,102113.34
2022-08-10T09:15:40.880Z,102110.63
2022-08-10T09:20:48.229Z,102114.66
2022-08-10T09:26:07.931Z,102116.16
2022-08-10T09:31:21.948Z,102108.78
2022-08-10T09:37:04.152Z,102109.56
2022-08-10T09:42:16.019Z,102106.50
2022-08-10T09:47:58.566Z,102100.94
2022-08-10T09:53:04.978Z,102094.41
2022-08-10T09:58:15.327Z,102096.06
2022-08-10T10:03:25.982Z,102090.78
2022-08-10T10:08:36.437Z,102084.38
2022-08-10T10:14:02.545Z,102083.22
2022-08-10T10:19:25.749Z,102072.06
2022-08-10T10:24:43.145Z,102075.28
2022-08-10T10:30:06.218Z,102065.13
2022-08-10T10:35:29.142Z,102069.53
2022-08-10T10:41:07.104Z,102065.47
2022-08-10T10:46:16.239Z,102052.31
2022-08-10T10:51:53.735Z,102052.44
2022-08-10T10:57:17.407Z,102058.19
2022-08-10T11:02:32.474Z,102041.06
2022-08-10T11:07:36.181Z,102035.00
2022-08-10T11:12:57.676Z,102026.94
2022-08-10T11:18:36.469Z,102029.72
2022-08-10T11:24:48.749Z,102029.81
2022-08-10T11:29:35.194Z,102023.16
2022-08-10T11:35:34.626Z,102024.91
2022-08-10T11:40:43.334Z,102022.16
2022-08-10T11:45:52.128Z,102016.44
2022-08-10T11:51:01.421Z,102019.75
2022-08-10T11:56:03.608Z,102008.31
2022-08-10T12:01:13.509Z,102001.31
2022-08-10T12:06:28.933Z,101979.06
2022-08-10T12:11:35.658Z,101988.53
2022-08-10T12:16:39.678Z,101991.16
2022-08-10T12:21:45.445Z,101981.84
2022-08-10T12:27:00.396Z,101973.38
2022-08-10T12:32:11.210Z,101971.16
2022-08-10T12:37:33.440Z,101956.25
2022-08-10T12:42:43.232Z,101962.94
2022-08-10T12:48:31.366Z,101953.03
2022-08-10T12:53:51.929Z,101945.50
2022-08-10T12:59:00.248Z,101925.94
2022-08-10T13:04:22.711Z,101921.56
2022-08-10T13:09:25.942Z,101919.31
2022-08-10T13:14:56.950Z,101919.16
2022-08-10T13:20:08.185Z,101905.41
2022-08-10T13:25:16.665Z,101903.91
2022-08-10T13:30:37.581Z,101892.25
2022-08-10T13:35:40.156Z,101890.50
2022-08-10T13:40:41.997Z,101884.91
2022-08-10T13:45:49.251Z,101883.47
2022-08-10T13:50:52.690Z,101878.94
2022-08-10T13:55:56.924Z,101872.22
2022-08-10T14:01:00.124Z,101862.47
2022-08-10T14:06:01.991Z,101872.59
2022-08-10T14:11:10.851Z,101866.56
2022-08-10T14:16:14.132Z,101852.03
2022-08-10T14:21:16.146Z,101857.34
2022-08-10T14:26:26.371Z,101849.78
2022-08-10T14:31:33.763Z,101839.75
2022-08-10T14:36:56.353Z,101836.56
2022-08-10T14:42:00.868Z,101832.69
2022-08-10T14:47:52.275Z,101828.25
2022-08-10T14:52:30.632Z,101823.78
2022-08-10T14:58:19.868Z,101821.50
2022-08-10T15:02:57.980Z,101827.13
2022-08-10T15:08:00.159Z,101816.03
2022-08-10T15:13:03.577Z,101807.56
2022-08-10T15:18:06.721Z,101814.03
2022-08-10T15:23:30.517Z,101806.13
2022-08-10T15:29:22.912Z,101799.34
2022-08-10T15:34:14.072Z,101797.38
2022-08-10T15:40:21.919Z,101791.94
2022-08-10T15:44:41.617Z,101789.06
2022-08-10T15:50:03.572Z,101781.25
2022-08-10T15:55:43.778Z,101783.91
2022-08-10T16:00:39.766Z,101783.47
2022-08-10T16:06:02.052Z,101790.09
2022-08-10T16:11:05.781Z,101783.59
2022-08-10T16:16:11.415Z,101776.69
2022-08-10T16:21:19.054Z,101779.88
2022-08-10T16:26:28.203Z,101785.53
2022-08-10T16:31:33.873Z,101791.19
2022-08-10T16:36:42.182Z,101776.22
2022-08-10T16:42:03.017Z,101770.56
2022-08-10T16:47:06.883Z,101764.16
2022-08-10T16:52:08.584Z,101760.00
2022-08-10T16:57:10.317Z,101765.94
2022-08-10T17:02:16.093Z,101764.72
2022-08-10T17:07:18.606Z,101765.09
2022-08-10T17:12:24.239Z,101775.44
2022-08-10T17:17:30.787Z,101765.16
2022-08-10T17:22:36.212Z,101761.41
2022-08-10T17:28:03.922Z,101768.03
2022-08-10T17:33:11.069Z,101763.22
2022-08-10T17:38:20.992Z,101761.34
2022-08-10T17:43:58.324Z,101744.75
2022-08-10T17:48:45.956Z,101748.09
2022-08-10T17:53:49.689Z,101746.09
2022-08-10T17:59:01.128Z,101753.03
2022-08-10T18:04:05.256Z,101744.66
2022-08-10T18:09:11.409Z,101748.69
2022-08-10T18:14:13.173Z,101755.47
2022-08-10T18:19:14.888Z,101754.75
2022-08-10T18:24:17.772Z,101765.94
2022-08-10T18:29:21.979Z,101752.69
2022-08-10T18:34:23.773Z,101764.06
2022-08-10T18:39:30.029Z,101757.88
2022-08-10T18:44:35.535Z,101755.69
2022-08-10T18:49:37.034Z,101761.31
2022-08-10T18:54:44.916Z,101756.31
2022-08-10T19:00:08.852Z,101766.78
2022-08-10T19:05:36.826Z,101769.84
2022-08-10T19:11:02.095Z,101778.38
2022-08-10T19:16:10.505Z,101784.06
2022-08-10T19:21:19.244Z,101786.72
2022-08-10T19:26:42.502Z,101785.78
2022-08-10T19:32:40.520Z,101780.00
2022-08-10T19:38:14.727Z,101781.16
2022-08-10T19:43:59.283Z,101788.56
2022-08-10T19:49:19.375Z,101773.72
2022-08-10T19:54:53.102Z,101783.75
2022-08-10T20:00:17.049Z,101793.59
2022-08-10T20:05:33.351Z,101797.16
2022-08-10T20:10:57.118Z,101801.00
2022-08-10T20:16:02.892Z,101809.91
2022-08-10T20:21:14.818Z,101811.47
2022-08-10T20:26:23.276Z,101808.41
2022-08-10T20:31:29.452Z,101808.88
2022-08-10T20:36:33.055Z,101803.03
2022-08-10T20:42:03.581Z,101807.97
2022-08-10T20:47:24.928Z,101805.69
2022-08-10T20:52:26.709Z,101804.38
2022-08-10T20:58:04.789Z,101793.44
2022-08-10T21:03:31.744Z,101790.19
2022-08-10T21:08:59.764Z,101789.59
2022-08-10T21:14:13.555Z,101791.78
2022-08-10T21:19:30.472Z,101782.34
2022-08-10T21:24:55.676Z,101801.25
2022-08-10T21:30:09.207Z,101801.78
2022-08-10T21:35:40.173Z,101802.25
2022-08-10T21:41:19.094Z,101791.00
2022-08-10T21:46:58.784Z,101797.41
2022-08-10T21:52:32.730Z,101801.41
2022-08-10T21:58:27.433Z,101785.66
2022-08-10T22:03:47.970Z,101786.72
2022-08-10T22:09:18.183Z,101778.69
2022-08-10T22:14:52.682Z,101784.28
2022-08-10T22:20:24.778Z,101781.94
2022-08-10T22:26:26.743Z,101781.31
2022-08-10T22:32:16.082Z,101788.66
2022-08-10T22:38:07.971Z,101788.91
2022-08-10T22:43:36.900Z,101789.00
2022-08-10T22:49:01.962Z,101787.31
2022-08-10T22:54:52.637Z,101783.88
2022-08-10T22:59:54.301Z,101789.38
2022-08-10T23:04:58.785Z,101789.47
2022-08-10T23:10:03.561Z,101785.13
2022-08-10T23:15:25.395Z,101785.25
2022-08-10T23:20:27.159Z,101786.22
2022-08-10T23:25:31.907Z,101786.28
2022-08-10T23:30:36.743Z,101781.94
2022-08-10T23:36:31.080Z,101787.38
2022-08-10T23:41:11.706Z,101788.31
2022-08-10T23:46:13.421Z,101784.09
2022-08-10T23:51:16.317Z,101784.19
2022-08-10T23:56:20.440Z,101783.41
